createdAt,value
2022-08-26T00:00:12.405Z,25.39
2022-08-26T00:02:39.875Z,25.31
2022-08-26T00:05:09.837Z,25.25
2022-08-26T00:07:36.845Z,25.38
2022-08-26T00:10:07.686Z,25.48
2022-08-26T00:12:38.046Z,25.54
2022-08-26T00:15:09.244Z,25.46
2022-08-26T00:17:40.204Z,25.42
2022-08-26T00:20:10.464Z,25.62
2022-08-26T00:22:40.157Z,25.31
2022-08-26T00:25:08.459Z,25.45
2022-08-26T00:27:39.645Z,25.34
2022-08-26T00:32:38.203Z,25.22
2022-08-26T00:35:07.811Z,25.26
2022-08-26T00:37:37.549Z,25.37
2022-08-26T00:40:11.332Z,25.23
2022-08-26T00:42:46.130Z,25.28
2022-08-26T00:45:18.243Z,25.29
2022-08-26T00:47:53.446Z,25.43
2022-08-26T00:50:27.033Z,25.43
2022-08-26T00:52:55.958Z,25.49
2022-08-26T00:55:39.613Z,25.15
2022-08-26T00:58:09.683Z,25.22
2022-08-26T01:00:39.173Z,25.31
2022-08-26T01:03:11.649Z,25.33
2022-08-26T01:05:43.673Z,25.28
2022-08-26T01:08:11.123Z,25.33
2022-08-26T01:10:39.029Z,25.37
2022-08-26T01:13:11.270Z,25.41
2022-08-26T01:15:47.348Z,25.46
2022-08-26T01:18:15.846Z,25.58
2022-08-26T01:21:11.505Z,25.28
2022-08-26T01:23:47.037Z,25.43
2022-08-26T01:26:29.895Z,25.39
2022-08-26T01:29:01.268Z,25.52
2022-08-26T01:31:38.374Z,25.49
2022-08-26T01:34:17.820Z,25.49
2022-08-26T01:36:54.745Z,25.58
2022-08-26T01:39:22.025Z,25.54
2022-08-26T01:41:53.687Z,25.30
2022-08-26T01:44:25.829Z,25.23
2022-08-26T01:46:53.853Z,25.13
2022-08-26T01:49:23.183Z,25.25
2022-08-26T01:51:58.412Z,25.23
2022-08-26T01:54:26.623Z,25.20
2022-08-26T01:56:54.975Z,25.26
2022-08-26T01:59:24.714Z,25.26
2022-08-26T02:01:52.731Z,25.14
2022-08-26T02:04:37.518Z,25.20
2022-08-26T02:07:11.156Z,25.04
2022-08-26T02:09:41.232Z,24.98
2022-08-26T02:12:11.818Z,24.99
2022-08-26T02:14:50.065Z,24.98
2022-08-26T02:17:26.167Z,25.02
2022-08-26T02:19:54.064Z,24.93
2022-08-26T02:22:24.643Z,24.88
2022-08-26T02:25:15.029Z,24.66
2022-08-26T02:27:42.642Z,24.62
2022-08-26T02:30:22.042Z,24.79
2022-08-26T02:32:49.813Z,24.61
2022-08-26T02:35:20.226Z,24.60
2022-08-26T02:37:49.523Z,24.56
2022-08-26T02:40:24.197Z,24.64
2022-08-26T02:42:52.982Z,24.60
2022-08-26T02:45:23.975Z,24.55
2022-08-26T02:47:54.436Z,24.54
2022-08-26T02:50:26.725Z,24.45
2022-08-26T02:52:53.668Z,24.44
2022-08-26T02:55:20.820Z,24.30
2022-08-26T02:57:52.411Z,24.36
2022-08-26T03:00:19.589Z,24.37
2022-08-26T03:02:48.763Z,24.22
2022-08-26T03:05:17.889Z,24.23
2022-08-26T03:07:45.226Z,24.25
2022-08-26T03:10:14.808Z,24.12
2022-08-26T03:12:42.983Z,23.96
2022-08-26T03:15:17.851Z,24.00
2022-08-26T03:17:47.597Z,24.07
2022-08-26T03:20:17.333Z,24.25
2022-08-26T03:22:51.403Z,24.26
2022-08-26T03:25:18.307Z,24.20
2022-08-26T03:27:45.733Z,24.11
2022-08-26T03:30:35.692Z,24.29
2022-08-26T03:33:03.915Z,24.20
2022-08-26T03:35:32.500Z,23.99
2022-08-26T03:37:59.950Z,23.96
2022-08-26T03:40:34.644Z,23.96
2022-08-26T03:43:05.181Z,23.98
2022-08-26T03:45:33.156Z,23.95
2022-08-26T03:48:05.160Z,23.90
2022-08-26T03:50:34.242Z,23.92
2022-08-26T03:53:04.702Z,23.77
2022-08-26T03:55:34.355Z,23.78
2022-08-26T03:58:04.008Z,23.82
2022-08-26T04:00:31.215Z,23.74
2022-08-26T04:02:58.274Z,23.82
2022-08-26T04:05:25.374Z,23.64
2022-08-26T04:07:52.349Z,23.68
2022-08-26T04:10:28.675Z,23.72
2022-08-26T04:13:02.409Z,23.85
2022-08-26T04:15:29.490Z,23.73
2022-08-26T04:18:00.940Z,23.59
2022-08-26T04:20:28.022Z,23.71
2022-08-26T04:22:55.081Z,23.68
2022-08-26T04:25:24.548Z,23.74
2022-08-26T04:27:53.715Z,23.71
2022-08-26T04:30:21.258Z,23.80
2022-08-26T04:32:49.116Z,23.82
2022-08-26T04:35:16.241Z,23.93
2022-08-26T04:37:44.018Z,23.97
2022-08-26T04:40:12.161Z,23.87
2022-08-26T04:42:41.122Z,23.93
2022-08-26T04:45:09.901Z,23.76
2022-08-26T04:47:40.435Z,24.01
2022-08-26T04:50:08.688Z,24.13
2022-08-26T04:52:39.958Z,24.05
2022-08-26T04:55:08.767Z,24.15
2022-08-26T04:57:36.184Z,24.07
2022-08-26T05:00:06.939Z,24.33
2022-08-26T05:02:34.240Z,24.20
2022-08-26T05:05:04.348Z,24.33
2022-08-26T05:07:31.530Z,24.57
2022-08-26T05:09:58.911Z,24.58
2022-08-26T05:12:25.860Z,24.35
2022-08-26T05:14:53.411Z,24.42
2022-08-26T05:17:20.562Z,24.76
2022-08-26T05:19:52.590Z,24.80
2022-08-26T05:22:22.088Z,24.82
2022-08-26T05:24:52.168Z,24.89
2022-08-26T05:27:19.504Z,24.91
2022-08-26T05:29:46.497Z,25.06
2022-08-26T05:32:13.435Z,25.03
2022-08-26T05:34:40.939Z,25.17
2022-08-26T05:37:13.723Z,25.31
2022-08-26T05:39:51.212Z,25.41
2022-08-26T05:42:22.875Z,25.50
2022-08-26T05:44:56.045Z,25.51
2022-08-26T05:47:24.276Z,25.38
2022-08-26T05:49:51.818Z,25.28
2022-08-26T05:52:19.512Z,25.40
2022-08-26T05:54:49.030Z,25.55
2022-08-26T05:57:18.673Z,25.79
2022-08-26T05:59:52.274Z,25.90
2022-08-26T06:02:22.124Z,26.05
2022-08-26T06:04:55.247Z,26.01
2022-08-26T06:07:46.714Z,26.14
2022-08-26T06:10:31.448Z,26.38
2022-08-26T06:13:09.426Z,26.41
2022-08-26T06:15:50.426Z,26.55
2022-08-26T06:18:25.275Z,26.77
2022-08-26T06:20:57.725Z,26.86
2022-08-26T06:23:46.331Z,26.79
2022-08-26T06:26:16.214Z,26.20
2022-08-26T06:28:45.567Z,26.06
2022-08-26T06:31:17.928Z,26.23
2022-08-26T06:33:47.572Z,26.31
2022-08-26T06:36:34.886Z,26.15
2022-08-26T06:39:10.803Z,26.22
2022-08-26T06:41:43.672Z,25.87
2022-08-26T06:44:13.266Z,26.10
2022-08-26T06:46:41.637Z,26.06
2022-08-26T06:49:12.903Z,25.97
2022-08-26T06:51:40.973Z,25.76
2022-08-26T06:54:08.959Z,25.64
2022-08-26T06:56:42.689Z,25.38
2022-08-26T06:59:12.279Z,25.36
2022-08-26T07:01:46.692Z,25.65
2022-08-26T07:04:22.006Z,26.25
2022-08-26T07:06:53.737Z,26.80
2022-08-26T07:09:30.419Z,26.56
2022-08-26T07:11:57.557Z,26.94
2022-08-26T07:14:27.487Z,27.32
2022-08-26T07:16:55.007Z,27.58
2022-08-26T07:19:30.418Z,27.67
2022-08-26T07:22:04.240Z,27.55
2022-08-26T07:24:40.296Z,27.55
2022-08-26T07:27:16.049Z,27.67
2022-08-26T07:29:46.403Z,27.80
2022-08-26T07:32:22.983Z,28.23
2022-08-26T07:34:53.054Z,28.48
2022-08-26T07:37:20.183Z,28.51
2022-08-26T07:39:49.269Z,28.83
2022-08-26T07:42:20.469Z,29.27
2022-08-26T07:44:50.156Z,29.76
2022-08-26T07:47:24.770Z,30.07
2022-08-26T07:49:54.321Z,30.11
2022-08-26T07:52:27.070Z,30.40
2022-08-26T07:55:01.338Z,30.48
2022-08-26T07:57:32.290Z,29.94
2022-08-26T08:00:02.488Z,29.95
2022-08-26T08:02:32.113Z,30.48
2022-08-26T08:05:01.709Z,31.05
2022-08-26T08:07:44.444Z,30.77
2022-08-26T08:10:21.045Z,31.07
2022-08-26T08:12:52.638Z,31.34
2022-08-26T08:15:24.938Z,31.72
2022-08-26T08:17:52.574Z,31.20
2022-08-26T08:20:20.941Z,31.60
2022-08-26T08:22:48.350Z,31.60
2022-08-26T08:25:15.297Z,31.67
2022-08-26T08:27:45.894Z,31.76
2022-08-26T08:30:15.459Z,31.97
2022-08-26T08:32:50.594Z,31.97
2022-08-26T08:35:21.160Z,32.01
2022-08-26T08:37:50.826Z,32.57
2022-08-26T08:40:18.422Z,32.98
2022-08-26T08:42:57.790Z,33.16
2022-08-26T08:45:34.494Z,33.23
2022-08-26T08:48:16.252Z,33.13
2022-08-26T08:50:48.085Z,33.36
2022-08-26T08:53:31.977Z,33.65
2022-08-26T08:56:17.467Z,33.66
2022-08-26T08:58:59.894Z,34.00
2022-08-26T09:01:47.565Z,34.65
2022-08-26T09:04:50.356Z,34.71
2022-08-26T09:07:52.658Z,35.14
2022-08-26T09:10:36.233Z,35.57
2022-08-26T09:13:16.359Z,36.50
2022-08-26T09:16:11.107Z,35.88
2022-08-26T09:18:56.228Z,35.62
2022-08-26T09:21:27.418Z,36.01
2022-08-26T09:23:56.689Z,36.82
2022-08-26T09:26:30.970Z,37.38
2022-08-26T09:29:10.428Z,37.05
2022-08-26T09:31:42.195Z,36.92
2022-08-26T09:34:23.128Z,36.89
2022-08-26T09:36:58.987Z,36.31
2022-08-26T09:39:40.723Z,36.49
2022-08-26T09:42:25.487Z,36.96
2022-08-26T09:45:10.420Z,37.32
2022-08-26T09:47:53.246Z,36.59
2022-08-26T09:51:08.148Z,36.35
2022-08-26T09:53:50.695Z,36.17
2022-08-26T09:56:32.658Z,37.10
2022-08-26T09:59:06.576Z,37.72
2022-08-26T10:01:46.923Z,38.00
2022-08-26T10:04:14.843Z,38.62
2022-08-26T10:06:57.558Z,38.99
2022-08-26T10:09:26.052Z,38.75
2022-08-26T10:12:04.311Z,39.75
2022-08-26T10:14:38.096Z,39.51
2022-08-26T10:17:13.593Z,37.63
2022-08-26T10:19:57.046Z,37.41
2022-08-26T10:22:45.751Z,37.02
2022-08-26T10:25:24.674Z,37.61
2022-08-26T10:28:09.891Z,38.36
2022-08-26T10:30:51.415Z,39.84
2022-08-26T10:33:21.578Z,39.67
2022-08-26T10:36:03.978Z,38.62
2022-08-26T10:38:41.347Z,36.19
2022-08-26T10:41:20.684Z,36.10
2022-08-26T10:43:56.406Z,36.15
2022-08-26T10:46:33.430Z,36.14
2022-08-26T10:49:11.221Z,36.23
2022-08-26T10:51:54.692Z,36.21
2022-08-26T10:55:01.443Z,36.08
2022-08-26T10:58:29.199Z,36.25
2022-08-26T11:01:40.861Z,35.85
2022-08-26T11:04:45.746Z,36.06
2022-08-26T11:07:39.519Z,37.94
2022-08-26T11:10:17.449Z,38.20
2022-08-26T11:12:54.028Z,37.58
2022-08-26T11:15:37.309Z,38.28
2022-08-26T11:18:10.992Z,39.24
2022-08-26T11:20:48.961Z,40.14
2022-08-26T11:23:27.233Z,40.71
2022-08-26T11:26:11.707Z,41.34
2022-08-26T11:28:50.815Z,41.56
2022-08-26T11:31:19.040Z,41.69
2022-08-26T11:34:03.878Z,41.61
2022-08-26T11:36:47.838Z,41.91
2022-08-26T11:39:36.955Z,41.91
2022-08-26T11:42:44.393Z,41.92
2022-08-26T11:45:37.763Z,41.64
2022-08-26T11:48:28.978Z,41.73
2022-08-26T11:51:23.151Z,41.57
2022-08-26T11:53:53.811Z,41.86
2022-08-26T11:56:33.110Z,41.12
2022-08-26T11:59:11.032Z,41.04
2022-08-26T12:01:49.091Z,41.60
2022-08-26T12:04:34.859Z,41.81
2022-08-26T12:07:04.835Z,41.10
2022-08-26T12:09:51.734Z,41.51
2022-08-26T12:12:40.289Z,41.55
2022-08-26T12:15:17.609Z,41.40
2022-08-26T12:17:53.401Z,40.65
2022-08-26T12:20:46.253Z,40.73
2022-08-26T12:23:50.380Z,40.85
2022-08-26T12:26:33.425Z,40.74
2022-08-26T12:29:20.243Z,40.39
2022-08-26T12:32:15.888Z,40.32
2022-08-26T12:34:50.163Z,39.85
2022-08-26T12:37:21.946Z,39.39
2022-08-26T12:39:49.308Z,40.21
2022-08-26T12:42:36.476Z,39.14
2022-08-26T12:45:06.790Z,39.67
2022-08-26T12:47:44.000Z,40.11
2022-08-26T12:50:37.067Z,39.89
2022-08-26T12:53:18.368Z,40.07
2022-08-26T12:55:51.319Z,40.04
2022-08-26T12:58:32.151Z,38.96
2022-08-26T13:01:22.348Z,38.60
2022-08-26T13:03:52.140Z,38.77
2022-08-26T13:06:22.434Z,38.40
2022-08-26T13:08:49.324Z,38.87
2022-08-26T13:11:28.247Z,38.96
2022-08-26T13:14:07.405Z,39.03
2022-08-26T13:16:39.615Z,38.78
2022-08-26T13:19:12.842Z,38.19
2022-08-26T13:21:55.542Z,37.98
2022-08-26T13:24:42.379Z,37.50
2022-08-26T13:27:20.479Z,37.46
2022-08-26T13:29:50.510Z,37.26
2022-08-26T13:32:22.449Z,36.98
2022-08-26T13:34:55.472Z,36.49
2022-08-26T13:37:34.597Z,36.83
2022-08-26T13:40:05.536Z,36.89
2022-08-26T13:42:59.528Z,36.72
2022-08-26T13:45:27.764Z,37.08
2022-08-26T13:51:34.102Z,37.48
2022-08-26T13:54:01.351Z,37.29
2022-08-26T13:56:31.172Z,37.19
2022-08-26T13:59:04.782Z,37.46
2022-08-26T14:01:32.825Z,37.27
2022-08-26T14:03:59.828Z,37.61
2022-08-26T14:06:27.202Z,37.54
2022-08-26T14:08:56.912Z,37.47
2022-08-26T14:11:25.016Z,37.05
2022-08-26T14:13:52.541Z,36.60
2022-08-26T14:16:38.917Z,36.49
2022-08-26T14:19:25.961Z,36.36
2022-08-26T14:21:53.256Z,36.11
2022-08-26T14:24:22.466Z,35.92
2022-08-26T14:26:49.413Z,35.62
2022-08-26T14:29:16.911Z,35.42
2022-08-26T14:31:46.761Z,35.39
2022-08-26T14:34:16.493Z,35.32
2022-08-26T14:36:46.448Z,35.40
2022-08-26T14:39:14.710Z,35.29
2022-08-26T14:41:54.617Z,35.18
2022-08-26T14:44:31.268Z,35.06
2022-08-26T14:47:01.715Z,34.91
2022-08-26T14:49:35.949Z,35.00
2022-08-26T14:52:06.349Z,34.79
2022-08-26T14:54:33.704Z,34.90
2022-08-26T14:57:08.784Z,35.01
2022-08-26T14:59:43.348Z,35.04
2022-08-26T15:02:32.476Z,34.76
2022-08-26T15:05:04.505Z,34.39
2022-08-26T15:07:34.024Z,33.79
2022-08-26T15:10:01.038Z,33.09
2022-08-26T15:12:28.013Z,32.37
2022-08-26T15:14:54.966Z,32.20
2022-08-26T15:17:21.970Z,32.09
2022-08-26T15:19:51.175Z,32.16
2022-08-26T15:22:29.784Z,31.87
2022-08-26T15:24:59.716Z,31.89
2022-08-26T15:27:26.817Z,31.64
2022-08-26T15:29:54.249Z,30.87
2022-08-26T15:32:21.312Z,30.52
2022-08-26T15:34:53.066Z,30.47
2022-08-26T15:37:20.103Z,30.75
2022-08-26T15:39:47.955Z,30.81
2022-08-26T15:42:15.417Z,30.88
2022-08-26T15:44:48.970Z,31.03
2022-08-26T15:47:16.227Z,31.00
2022-08-26T15:49:43.243Z,30.92
2022-08-26T15:52:10.645Z,30.72
2022-08-26T15:54:40.130Z,30.71
2022-08-26T15:57:15.317Z,30.70
2022-08-26T15:59:46.464Z,30.78
2022-08-26T16:02:13.625Z,30.83
2022-08-26T16:04:40.691Z,30.74
2022-08-26T16:07:10.161Z,30.77
2022-08-26T16:09:39.412Z,30.92
2022-08-26T16:12:09.000Z,30.43
2022-08-26T16:14:38.896Z,29.81
2022-08-26T16:17:08.387Z,29.67
2022-08-26T16:19:35.287Z,29.24
2022-08-26T16:22:09.048Z,29.13
2022-08-26T16:24:37.216Z,28.48
2022-08-26T16:27:04.571Z,28.28
2022-08-26T16:29:32.147Z,28.32
2022-08-26T16:31:59.219Z,28.40
2022-08-26T16:34:30.764Z,28.44
2022-08-26T16:36:57.873Z,28.50
2022-08-26T16:39:24.743Z,28.40
2022-08-26T16:41:51.679Z,28.29
2022-08-26T16:44:18.581Z,28.41
2022-08-26T16:46:45.742Z,27.99
2022-08-26T16:49:12.713Z,27.88
2022-08-26T16:51:41.988Z,27.93
2022-08-26T16:54:11.253Z,27.85
2022-08-26T16:56:38.338Z,27.85
2022-08-26T16:59:09.519Z,27.62
2022-08-26T17:01:36.473Z,27.90
2022-08-26T17:04:04.045Z,27.75
2022-08-26T17:06:30.960Z,27.81
2022-08-26T17:08:58.045Z,27.74
2022-08-26T17:11:25.029Z,27.49
2022-08-26T17:13:52.003Z,27.54
2022-08-26T17:16:22.254Z,27.73
2022-08-26T17:18:51.504Z,27.74
2022-08-26T17:21:19.494Z,27.52
2022-08-26T17:23:46.625Z,27.48
2022-08-26T17:26:13.755Z,27.57
2022-08-26T17:28:41.205Z,27.65
2022-08-26T17:31:13.335Z,27.41
2022-08-26T17:33:40.857Z,27.29
2022-08-26T17:36:11.945Z,27.33
2022-08-26T17:38:39.269Z,27.41
2022-08-26T17:41:14.163Z,27.38
2022-08-26T17:43:41.504Z,27.35
2022-08-26T17:46:11.249Z,27.26
2022-08-26T17:48:42.215Z,27.31
2022-08-26T17:51:14.190Z,27.41
2022-08-26T17:53:41.742Z,27.35
2022-08-26T17:56:12.261Z,27.26
2022-08-26T17:58:41.320Z,27.34
2022-08-26T18:01:19.231Z,26.81
2022-08-26T18:03:50.980Z,26.28
2022-08-26T18:06:19.694Z,26.19
2022-08-26T18:08:46.701Z,26.09
2022-08-26T18:11:22.715Z,26.00
2022-08-26T18:13:58.718Z,26.46
2022-08-26T18:16:33.316Z,26.55
2022-08-26T18:19:03.461Z,26.75
2022-08-26T18:21:33.974Z,26.80
2022-08-26T18:24:05.745Z,26.68
2022-08-26T18:26:41.417Z,26.58
2022-08-26T18:29:12.655Z,26.37
2022-08-26T18:31:47.108Z,26.59
2022-08-26T18:34:18.680Z,26.63
2022-08-26T18:36:49.891Z,26.51
2022-08-26T18:39:22.156Z,26.45
2022-08-26T18:41:55.689Z,26.57
2022-08-26T18:44:25.997Z,26.54
2022-08-26T18:46:53.403Z,26.42
2022-08-26T18:49:24.408Z,26.16
2022-08-26T18:51:54.936Z,26.33
2022-08-26T18:54:25.121Z,26.02
2022-08-26T18:56:52.104Z,26.04
2022-08-26T18:59:29.595Z,25.96
2022-08-26T19:02:00.730Z,25.71
2022-08-26T19:04:28.011Z,25.91
2022-08-26T19:06:57.399Z,25.83
2022-08-26T19:09:26.410Z,25.85
2022-08-26T19:14:28.713Z,25.81
2022-08-26T19:16:55.922Z,25.72
2022-08-26T19:19:25.869Z,25.70
2022-08-26T19:21:55.253Z,25.57
2022-08-26T19:24:22.459Z,25.52
2022-08-26T19:26:57.951Z,25.61
2022-08-26T19:29:31.593Z,25.75
2022-08-26T19:31:59.774Z,25.65
2022-08-26T19:34:35.552Z,25.70
2022-08-26T19:37:07.319Z,25.82
2022-08-26T19:39:37.850Z,25.79
2022-08-26T19:42:06.582Z,25.86
2022-08-26T19:44:52.950Z,25.80
2022-08-26T19:47:20.308Z,25.77
2022-08-26T19:49:56.873Z,25.90
2022-08-26T19:52:29.905Z,25.90
2022-08-26T19:54:59.540Z,26.08
2022-08-26T19:57:27.058Z,26.20
2022-08-26T19:59:57.069Z,26.15
2022-08-26T20:02:28.466Z,26.24
2022-08-26T20:04:58.316Z,26.22
2022-08-26T20:07:26.049Z,26.25
2022-08-26T20:09:55.848Z,26.24
2022-08-26T20:12:23.051Z,26.07
2022-08-26T20:14:50.037Z,26.23
2022-08-26T20:17:17.101Z,26.17
2022-08-26T20:20:02.469Z,26.17
2022-08-26T20:22:29.751Z,26.07
2022-08-26T20:25:01.366Z,26.33
2022-08-26T20:27:37.988Z,26.21
2022-08-26T20:30:08.757Z,26.33
2022-08-26T20:32:43.999Z,26.16
2022-08-26T20:35:19.786Z,26.15
2022-08-26T20:37:51.324Z,26.36
2022-08-26T20:40:25.212Z,26.19
2022-08-26T20:42:56.284Z,26.36
2022-08-26T20:45:28.836Z,26.22
2022-08-26T20:47:56.413Z,26.10
2022-08-26T20:50:23.364Z,25.96
2022-08-26T20:52:54.416Z,25.93
2022-08-26T20:55:23.837Z,25.76
2022-08-26T20:57:52.635Z,25.95
2022-08-26T21:00:24.578Z,25.72
2022-08-26T21:02:55.195Z,25.83
2022-08-26T21:05:22.884Z,25.88
2022-08-26T21:07:52.990Z,25.87
2022-08-26T21:10:21.059Z,25.78
2022-08-26T21:12:58.804Z,25.93
2022-08-26T21:15:29.663Z,25.71
2022-08-26T21:18:03.234Z,25.79
2022-08-26T21:20:35.976Z,25.52
2022-08-26T21:23:06.282Z,25.50
2022-08-26T21:25:33.195Z,25.68
2022-08-26T21:28:00.197Z,25.48
2022-08-26T21:30:27.647Z,25.57
2022-08-26T21:32:54.601Z,25.31
2022-08-26T21:35:21.529Z,25.31
2022-08-26T21:37:48.431Z,25.53
2022-08-26T21:40:15.445Z,25.44
2022-08-26T21:42:42.592Z,25.34
2022-08-26T21:45:12.814Z,25.46
2022-08-26T21:47:40.640Z,25.52
2022-08-26T21:50:10.867Z,25.36
2022-08-26T21:52:38.314Z,25.41
2022-08-26T21:55:09.123Z,25.34
2022-08-26T21:57:38.648Z,25.34
2022-08-26T22:00:09.203Z,25.43
2022-08-26T22:02:38.757Z,25.48
2022-08-26T22:05:06.202Z,25.34
2022-08-26T22:07:35.876Z,25.44
2022-08-26T22:10:02.971Z,25.33
2022-08-26T22:12:32.124Z,25.44
2022-08-26T22:14:59.425Z,25.47
2022-08-26T22:17:27.459Z,25.37
2022-08-26T22:19:55.242Z,25.35
2022-08-26T22:22:28.935Z,25.30
2022-08-26T22:24:55.900Z,25.16
2022-08-26T22:27:25.293Z,25.12
2022-08-26T22:29:54.925Z,25.17
2022-08-26T22:32:26.557Z,25.13
2022-08-26T22:34:53.474Z,25.20
2022-08-26T22:37:20.419Z,25.19
2022-08-26T22:39:47.485Z,25.06
2022-08-26T22:42:15.546Z,25.08
2022-08-26T22:44:43.865Z,25.11
2022-08-26T22:47:11.023Z,25.04
2022-08-26T22:49:38.055Z,25.13
2022-08-26T22:52:05.211Z,25.12
2022-08-26T22:54:32.908Z,25.01
2022-08-26T22:57:03.306Z,24.90
2022-08-26T22:59:30.320Z,24.96
2022-08-26T23:02:02.483Z,25.11
2022-08-26T23:04:29.882Z,25.11
2022-08-26T23:06:56.906Z,24.82
2022-08-26T23:09:23.966Z,24.96
2022-08-26T23:11:50.884Z,25.12
2022-08-26T23:14:18.899Z,25.03
2022-08-26T23:16:45.905Z,24.86
2022-08-26T23:19:15.201Z,24.99
2022-08-26T23:21:42.613Z,24.79
2022-08-26T23:24:10.460Z,24.89
2022-08-26T23:26:41.080Z,24.89
2022-08-26T23:29:11.807Z,24.85
2022-08-26T23:31:41.272Z,24.99
2022-08-26T23:34:27.247Z,24.91
2022-08-26T23:36:57.024Z,24.84
2022-08-26T23:39:25.520Z,25.02
2022-08-26T23:41:52.548Z,25.05
2022-08-26T23:44:22.372Z,24.78
2022-08-26T23:46:49.386Z,24.72
2022-08-26T23:49:16.326Z,24.89
2022-08-26T23:52:04.111Z,24.83
2022-08-26T23:54:33.362Z,24.77
2022-08-26T23:57:00.373Z,24.52
2022-08-26T23:59:27.321Z,24.54
